sensor_id;sensor_type;location;lat;lon;timestamp;temperature;humidity
67870;DHT22;54673;52.262;6.830;2023-11-21T00:02:12;7.80;99.90
67870;DHT22;54673;52.262;6.830;2023-11-21T00:04:37;7.90;99.90
67870;DHT22;54673;52.262;6.830;2023-11-21T00:07:03;7.90;99.90
67870;DHT22;54673;52.262;6.830;2023-11-21T00:09:29;7.90;99.90
67870;DHT22;54673;52.262;6.830;2023-11-21T00:11:54;7.80;99.90
67870;DHT22;54673;52.262;6.830;2023-11-21T00:14:20;7.90;99.90
67870;DHT22;54673;52.262;6.830;2023-11-21T00:16:45;7.90;99.90
67870;DHT22;54673;52.262;6.830;2023-11-21T00:19:11;7.90;99.90
67870;DHT22;54673;52.262;6.830;2023-11-21T00:21:37;7.90;99.90
67870;DHT22;54673;52.262;6.830;2023-11-21T00:24:03;7.90;99.90
67870;DHT22;54673;52.262;6.830;2023-11-21T00:26:29;7.90;99.90
67870;DHT22;54673;52.262;6.830;2023-11-21T00:28:56;7.90;99.90
67870;DHT22;54673;52.262;6.830;2023-11-21T00:31:22;7.90;99.90
67870;DHT22;54673;52.262;6.830;2023-11-21T00:33:47;7.90;99.90
67870;DHT22;54673;52.262;6.830;2023-11-21T00:36:13;7.90;99.90
67870;DHT22;54673;52.262;6.830;2023-11-21T00:38:38;7.90;99.90
67870;DHT22;54673;52.262;6.830;2023-11-21T00:41:05;7.90;99.90
67870;DHT22;54673;52.262;6.830;2023-11-21T00:43:31;7.90;99.90
67870;DHT22;54673;52.262;6.830;2023-11-21T00:45:59;7.90;99.90
67870;DHT22;54673;52.262;6.830;2023-11-21T00:48:24;7.90;99.90
67870;DHT22;54673;52.262;6.830;2023-11-21T00:50:50;7.90;99.90
67870;DHT22;54673;52.262;6.830;2023-11-21T00:53:15;8.00;99.90
67870;DHT22;54673;52.262;6.830;2023-11-21T00:55:41;7.90;99.90
67870;DHT22;54673;52.262;6.830;2023-11-21T00:58:07;8.00;99.90
67870;DHT22;54673;52.262;6.830;2023-11-21T01:00:33;7.90;99.90
67870;DHT22;54673;52.262;6.830;2023-11-21T01:02:59;8.00;99.90
67870;DHT22;54673;52.262;6.830;2023-11-21T01:05:25;8.00;99.90
67870;DHT22;54673;52.262;6.830;2023-11-21T01:07:51;8.00;99.90
67870;DHT22;54673;52.262;6.830;2023-11-21T01:10:16;7.90;99.90
67870;DHT22;54673;52.262;6.830;2023-11-21T01:12:42;8.00;99.90
67870;DHT22;54673;52.262;6.830;2023-11-21T01:15:09;8.00;99.90
67870;DHT22;54673;52.262;6.830;2023-11-21T01:17:37;8.00;99.90
67870;DHT22;54673;52.262;6.830;2023-11-21T01:20:04;8.00;99.90
67870;DHT22;54673;52.262;6.830;2023-11-21T01:22:36;8.00;99.90
67870;DHT22;54673;52.262;6.830;2023-11-21T01:25:02;8.00;99.90
67870;DHT22;54673;52.262;6.830;2023-11-21T01:27:29;8.00;99.90
67870;DHT22;54673;52.262;6.830;2023-11-21T01:29:55;8.00;99.90
67870;DHT22;54673;52.262;6.830;2023-11-21T01:32:21;8.00;99.90
67870;DHT22;54673;52.262;6.830;2023-11-21T01:34:47;8.00;99.90
67870;DHT22;54673;52.262;6.830;2023-11-21T01:37:13;8.00;99.90
67870;DHT22;54673;52.262;6.830;2023-11-21T01:39:39;8.00;99.90
67870;DHT22;54673;52.262;6.830;2023-11-21T01:42:05;8.00;99.90
67870;DHT22;54673;52.262;6.830;2023-11-21T01:44:31;8.00;99.90
67870;DHT22;54673;52.262;6.830;2023-11-21T01:46:57;8.00;99.90
67870;DHT22;54673;52.262;6.830;2023-11-21T01:49:23;8.00;99.90
67870;DHT22;54673;52.262;6.830;2023-11-21T01:51:49;8.00;99.90
67870;DHT22;54673;52.262;6.830;2023-11-21T01:54:17;8.00;99.90
67870;DHT22;54673;52.262;6.830;2023-11-21T01:56:46;8.40;99.90
67870;DHT22;54673;52.262;6.830;2023-11-21T01:59:20;8.00;99.90
67870;DHT22;54673;52.262;6.830;2023-11-21T02:01:49;8.00;99.90
67870;DHT22;54673;52.262;6.830;2023-11-21T02:04:15;8.00;99.90
67870;DHT22;54673;52.262;6.830;2023-11-21T02:06:41;8.00;99.90
67870;DHT22;54673;52.262;6.830;2023-11-21T02:09:07;8.00;99.90
67870;DHT22;54673;52.262;6.830;2023-11-21T02:11:34;8.00;99.90
67870;DHT22;54673;52.262;6.830;2023-11-21T02:14:00;8.00;99.90
67870;DHT22;54673;52.262;6.830;2023-11-21T02:16:26;8.00;99.90
67870;DHT22;54673;52.262;6.830;2023-11-21T02:18:52;8.90;99.90
67870;DHT22;54673;52.262;6.830;2023-11-21T02:21:18;8.00;99.90
67870;DHT22;54673;52.262;6.830;2023-11-21T02:23:45;8.00;99.90
67870;DHT22;54673;52.262;6.830;2023-11-21T02:26:12;8.00;99.90
67870;DHT22;54673;52.262;6.830;2023-11-21T02:28:39;8.00;99.90
67870;DHT22;54673;52.262;6.830;2023-11-21T02:31:05;8.00;99.90
67870;DHT22;54673;52.262;6.830;2023-11-21T02:33:33;8.10;99.90
67870;DHT22;54673;52.262;6.830;2023-11-21T02:36:00;8.10;99.90
67870;DHT22;54673;52.262;6.830;2023-11-21T02:38:25;8.10;99.90
67870;DHT22;54673;52.262;6.830;2023-11-21T02:40:51;8.00;99.90
67870;DHT22;54673;52.262;6.830;2023-11-21T02:43:17;8.00;99.90
67870;DHT22;54673;52.262;6.830;2023-11-21T02:45:42;8.00;99.90
67870;DHT22;54673;52.262;6.830;2023-11-21T02:48:08;8.10;99.90
67870;DHT22;54673;52.262;6.830;2023-11-21T02:50:34;9.20;99.90
67870;DHT22;54673;52.262;6.830;2023-11-21T02:53:00;8.10;99.90
67870;DHT22;54673;52.262;6.830;2023-11-21T02:55:27;8.10;99.90
67870;DHT22;54673;52.262;6.830;2023-11-21T02:57:53;9.00;99.90
67870;DHT22;54673;52.262;6.830;2023-11-21T03:00:18;8.10;99.90
67870;DHT22;54673;52.262;6.830;2023-11-21T03:02:45;8.10;99.90
67870;DHT22;54673;52.262;6.830;2023-11-21T03:05:13;8.10;99.90
67870;DHT22;54673;52.262;6.830;2023-11-21T03:07:39;8.10;99.90
67870;DHT22;54673;52.262;6.830;2023-11-21T03:10:08;8.10;99.90
67870;DHT22;54673;52.262;6.830;2023-11-21T03:12:34;8.10;99.90
67870;DHT22;54673;52.262;6.830;2023-11-21T03:15:00;8.10;99.90
67870;DHT22;54673;52.262;6.830;2023-11-21T03:17:27;8.10;99.90
67870;DHT22;54673;52.262;6.830;2023-11-21T03:19:54;8.10;99.90
67870;DHT22;54673;52.262;6.830;2023-11-21T03:22:20;8.30;99.90
67870;DHT22;54673;52.262;6.830;2023-11-21T03:24:45;8.10;99.90
67870;DHT22;54673;52.262;6.830;2023-11-21T03:27:11;8.10;99.90
67870;DHT22;54673;52.262;6.830;2023-11-21T03:29:37;8.10;99.90
67870;DHT22;54673;52.262;6.830;2023-11-21T03:32:03;8.10;99.90
67870;DHT22;54673;52.262;6.830;2023-11-21T03:34:29;8.10;99.90
67870;DHT22;54673;52.262;6.830;2023-11-21T03:36:54;8.10;99.90
67870;DHT22;54673;52.262;6.830;2023-11-21T03:39:20;8.10;99.90
67870;DHT22;54673;52.262;6.830;2023-11-21T03:41:46;8.10;99.90
67870;DHT22;54673;52.262;6.830;2023-11-21T03:44:13;8.10;99.90
67870;DHT22;54673;52.262;6.830;2023-11-21T03:46:38;8.10;99.90
67870;DHT22;54673;52.262;6.830;2023-11-21T03:49:04;8.10;99.90
67870;DHT22;54673;52.262;6.830;2023-11-21T03:51:29;8.10;99.90
67870;DHT22;54673;52.262;6.830;2023-11-21T03:53:55;9.10;99.90
67870;DHT22;54673;52.262;6.830;2023-11-21T03:56:21;7.00;99.90
67870;DHT22;54673;52.262;6.830;2023-11-21T03:58:49;8.10;99.90
67870;DHT22;54673;52.262;6.830;2023-11-21T04:01:24;8.10;99.90
67870;DHT22;54673;52.262;6.830;2023-11-21T04:03:50;8.10;99.90
67870;DHT22;54673;52.262;6.830;2023-11-21T04:06:17;8.10;99.90
67870;DHT22;54673;52.262;6.830;2023-11-21T04:08:44;8.10;99.90
67870;DHT22;54673;52.262;6.830;2023-11-21T04:11:10;8.10;99.90
67870;DHT22;54673;52.262;6.830;2023-11-21T04:13:38;9.00;99.90
67870;DHT22;54673;52.262;6.830;2023-11-21T04:16:05;8.60;99.90
67870;DHT22;54673;52.262;6.830;2023-11-21T04:18:31;8.10;99.90
67870;DHT22;54673;52.262;6.830;2023-11-21T04:20:56;8.10;99.90
67870;DHT22;54673;52.262;6.830;2023-11-21T04:23:22;8.10;99.90
67870;DHT22;54673;52.262;6.830;2023-11-21T04:25:48;8.10;99.90
67870;DHT22;54673;52.262;6.830;2023-11-21T04:28:13;8.10;99.90
67870;DHT22;54673;52.262;6.830;2023-11-21T04:30:39;8.10;99.90
67870;DHT22;54673;52.262;6.830;2023-11-21T04:33:05;8.10;99.90
67870;DHT22;54673;52.262;6.830;2023-11-21T04:35:30;8.10;99.90
67870;DHT22;54673;52.262;6.830;2023-11-21T04:37:56;8.10;99.90
67870;DHT22;54673;52.262;6.830;2023-11-21T04:40:22;8.10;99.90
67870;DHT22;54673;52.262;6.830;2023-11-21T04:42:48;8.60;99.90
67870;DHT22;54673;52.262;6.830;2023-11-21T04:45:14;8.10;99.90
67870;DHT22;54673;52.262;6.830;2023-11-21T04:47:39;8.10;99.90
67870;DHT22;54673;52.262;6.830;2023-11-21T04:50:05;9.30;99.90
67870;DHT22;54673;52.262;6.830;2023-11-21T04:52:31;8.10;99.90
67870;DHT22;54673;52.262;6.830;2023-11-21T04:54:58;8.10;99.90
67870;DHT22;54673;52.262;6.830;2023-11-21T04:57:26;8.10;99.90
67870;DHT22;54673;52.262;6.830;2023-11-21T04:59:54;9.00;99.90
67870;DHT22;54673;52.262;6.830;2023-11-21T05:02:19;8.10;99.90
67870;DHT22;54673;52.262;6.830;2023-11-21T05:04:46;8.10;99.90
67870;DHT22;54673;52.262;6.830;2023-11-21T05:07:12;8.10;99.90
67870;DHT22;54673;52.262;6.830;2023-11-21T05:09:44;8.10;99.90
67870;DHT22;54673;52.262;6.830;2023-11-21T05:12:14;8.10;99.90
67870;DHT22;54673;52.262;6.830;2023-11-21T05:14:40;8.10;99.90
67870;DHT22;54673;52.262;6.830;2023-11-21T05:17:05;8.10;99.90
67870;DHT22;54673;52.262;6.830;2023-11-21T05:19:33;8.10;99.90
67870;DHT22;54673;52.262;6.830;2023-11-21T05:21:59;8.10;99.90
67870;DHT22;54673;52.262;6.830;2023-11-21T05:24:26;8.10;99.90
67870;DHT22;54673;52.262;6.830;2023-11-21T05:26:51;8.10;99.90
67870;DHT22;54673;52.262;6.830;2023-11-21T05:29:18;8.70;99.90
67870;DHT22;54673;52.262;6.830;2023-11-21T05:31:43;8.10;99.90
67870;DHT22;54673;52.262;6.830;2023-11-21T05:34:09;8.10;99.90
67870;DHT22;54673;52.262;6.830;2023-11-21T05:36:34;8.10;99.90
67870;DHT22;54673;52.262;6.830;2023-11-21T05:39:00;8.10;99.90
67870;DHT22;54673;52.262;6.830;2023-11-21T05:41:26;8.10;99.90
67870;DHT22;54673;52.262;6.830;2023-11-21T05:43:51;8.10;99.90
67870;DHT22;54673;52.262;6.830;2023-11-21T05:46:19;8.20;99.90
67870;DHT22;54673;52.262;6.830;2023-11-21T05:48:45;8.10;99.90
67870;DHT22;54673;52.262;6.830;2023-11-21T05:51:11;8.10;99.90
67870;DHT22;54673;52.262;6.830;2023-11-21T05:53:38;8.10;99.90
67870;DHT22;54673;52.262;6.830;2023-11-21T05:56:04;8.10;99.90
67870;DHT22;54673;52.262;6.830;2023-11-21T05:58:29;8.10;99.90
67870;DHT22;54673;52.262;6.830;2023-11-21T06:00:55;8.10;99.90
67870;DHT22;54673;52.262;6.830;2023-11-21T06:03:20;8.10;99.90
67870;DHT22;54673;52.262;6.830;2023-11-21T06:05:46;8.10;99.90
67870;DHT22;54673;52.262;6.830;2023-11-21T06:08:11;8.10;99.90
67870;DHT22;54673;52.262;6.830;2023-11-21T06:10:37;8.10;99.90
67870;DHT22;54673;52.262;6.830;2023-11-21T06:13:03;8.10;99.90
67870;DHT22;54673;52.262;6.830;2023-11-21T06:15:29;8.10;99.90
67870;DHT22;54673;52.262;6.830;2023-11-21T06:17:55;8.10;99.90
67870;DHT22;54673;52.262;6.830;2023-11-21T06:20:21;8.10;99.90
67870;DHT22;54673;52.262;6.830;2023-11-21T06:22:50;8.10;99.90
67870;DHT22;54673;52.262;6.830;2023-11-21T06:25:16;8.10;99.90
67870;DHT22;54673;52.262;6.830;2023-11-21T06:27:43;8.10;99.90
67870;DHT22;54673;52.262;6.830;2023-11-21T06:30:10;8.10;99.90
67870;DHT22;54673;52.262;6.830;2023-11-21T06:32:37;8.10;99.90
67870;DHT22;54673;52.262;6.830;2023-11-21T06:35:04;8.10;99.90
67870;DHT22;54673;52.262;6.830;2023-11-21T06:37:30;8.10;99.90
67870;DHT22;54673;52.262;6.830;2023-11-21T06:39:58;8.10;99.90
67870;DHT22;54673;52.262;6.830;2023-11-21T06:42:24;8.10;99.90
67870;DHT22;54673;52.262;6.830;2023-11-21T06:44:50;8.10;99.90
67870;DHT22;54673;52.262;6.830;2023-11-21T06:47:19;8.10;99.90
67870;DHT22;54673;52.262;6.830;2023-11-21T06:49:50;8.10;99.90
67870;DHT22;54673;52.262;6.830;2023-11-21T06:52:16;8.10;99.90
67870;DHT22;54673;52.262;6.830;2023-11-21T06:54:42;8.70;99.90
67870;DHT22;54673;52.262;6.830;2023-11-21T06:57:07;8.10;99.90
67870;DHT22;54673;52.262;6.830;2023-11-21T06:59:33;8.10;99.90
67870;DHT22;54673;52.262;6.830;2023-11-21T07:01:59;8.10;99.90
67870;DHT22;54673;52.262;6.830;2023-11-21T07:04:25;8.10;99.90
67870;DHT22;54673;52.262;6.830;2023-11-21T07:06:56;8.20;99.90
67870;DHT22;54673;52.262;6.830;2023-11-21T07:09:21;8.10;99.90
67870;DHT22;54673;52.262;6.830;2023-11-21T07:11:48;8.10;99.90
67870;DHT22;54673;52.262;6.830;2023-11-21T07:14:14;8.10;99.90
67870;DHT22;54673;52.262;6.830;2023-11-21T07:16:40;8.10;99.90
67870;DHT22;54673;52.262;6.830;2023-11-21T07:19:06;8.10;99.90
67870;DHT22;54673;52.262;6.830;2023-11-21T07:21:36;8.40;99.90
67870;DHT22;54673;52.262;6.830;2023-11-21T07:24:06;8.10;99.90
67870;DHT22;54673;52.262;6.830;2023-11-21T07:26:32;8.10;99.90
67870;DHT22;54673;52.262;6.830;2023-11-21T07:28:59;9.00;99.90
67870;DHT22;54673;52.262;6.830;2023-11-21T07:31:24;8.20;99.90
67870;DHT22;54673;52.262;6.830;2023-11-21T07:33:51;8.10;99.90
67870;DHT22;54673;52.262;6.830;2023-11-21T07:36:17;8.20;99.90
67870;DHT22;54673;52.262;6.830;2023-11-21T07:38:49;8.10;99.90
67870;DHT22;54673;52.262;6.830;2023-11-21T07:41:14;8.10;99.90
67870;DHT22;54673;52.262;6.830;2023-11-21T07:43:41;8.10;99.90
67870;DHT22;54673;52.262;6.830;2023-11-21T07:46:07;8.20;99.90
67870;DHT22;54673;52.262;6.830;2023-11-21T07:48:34;8.20;99.90
67870;DHT22;54673;52.262;6.830;2023-11-21T07:51:00;9.20;99.90
67870;DHT22;54673;52.262;6.830;2023-11-21T07:53:26;8.20;99.90
67870;DHT22;54673;52.262;6.830;2023-11-21T07:55:54;8.20;99.90
67870;DHT22;54673;52.262;6.830;2023-11-21T07:58:20;9.00;99.90
67870;DHT22;54673;52.262;6.830;2023-11-21T08:00:45;8.20;99.90
67870;DHT22;54673;52.262;6.830;2023-11-21T08:03:11;8.20;99.90
67870;DHT22;54673;52.262;6.830;2023-11-21T08:05:37;8.20;99.90
67870;DHT22;54673;52.262;6.830;2023-11-21T08:08:03;8.20;99.90
67870;DHT22;54673;52.262;6.830;2023-11-21T08:10:28;8.20;99.90
67870;DHT22;54673;52.262;6.830;2023-11-21T08:12:55;8.20;99.90
67870;DHT22;54673;52.262;6.830;2023-11-21T08:15:21;9.40;99.90
67870;DHT22;54673;52.262;6.830;2023-11-21T08:17:47;8.60;99.90
67870;DHT22;54673;52.262;6.830;2023-11-21T08:20:13;8.20;99.90
67870;DHT22;54673;52.262;6.830;2023-11-21T08:22:43;8.20;99.90
67870;DHT22;54673;52.262;6.830;2023-11-21T08:25:09;8.20;99.90
67870;DHT22;54673;52.262;6.830;2023-11-21T08:27:34;8.20;99.90
67870;DHT22;54673;52.262;6.830;2023-11-21T08:30:02;8.20;99.90
67870;DHT22;54673;52.262;6.830;2023-11-21T08:32:28;8.20;99.90
67870;DHT22;54673;52.262;6.830;2023-11-21T08:34:55;8.20;99.90
67870;DHT22;54673;52.262;6.830;2023-11-21T08:37:20;8.20;99.90
67870;DHT22;54673;52.262;6.830;2023-11-21T08:39:47;8.30;99.90
67870;DHT22;54673;52.262;6.830;2023-11-21T08:42:13;8.30;99.90
67870;DHT22;54673;52.262;6.830;2023-11-21T08:44:40;9.10;99.90
67870;DHT22;54673;52.262;6.830;2023-11-21T08:47:05;8.30;99.90
67870;DHT22;54673;52.262;6.830;2023-11-21T08:49:31;8.30;99.90
67870;DHT22;54673;52.262;6.830;2023-11-21T08:51:58;8.30;99.90
67870;DHT22;54673;52.262;6.830;2023-11-21T08:54:28;8.30;99.90
67870;DHT22;54673;52.262;6.830;2023-11-21T08:56:54;8.30;99.90
67870;DHT22;54673;52.262;6.830;2023-11-21T08:59:20;8.30;99.90
67870;DHT22;54673;52.262;6.830;2023-11-21T09:01:46;8.30;99.90
67870;DHT22;54673;52.262;6.830;2023-11-21T09:04:12;8.90;99.90
67870;DHT22;54673;52.262;6.830;2023-11-21T09:06:39;8.30;99.90
67870;DHT22;54673;52.262;6.830;2023-11-21T09:09:05;8.30;99.90
67870;DHT22;54673;52.262;6.830;2023-11-21T09:11:31;8.30;99.90
67870;DHT22;54673;52.262;6.830;2023-11-21T09:13:59;8.40;99.90
67870;DHT22;54673;52.262;6.830;2023-11-21T09:16:28;8.30;99.90
67870;DHT22;54673;52.262;6.830;2023-11-21T09:18:53;8.40;99.90
67870;DHT22;54673;52.262;6.830;2023-11-21T09:21:19;8.40;99.90
67870;DHT22;54673;52.262;6.830;2023-11-21T09:23:45;8.70;99.90
67870;DHT22;54673;52.262;6.830;2023-11-21T09:26:11;8.30;99.90
67870;DHT22;54673;52.262;6.830;2023-11-21T09:28:37;9.00;99.90
67870;DHT22;54673;52.262;6.830;2023-11-21T09:31:04;8.40;99.90
67870;DHT22;54673;52.262;6.830;2023-11-21T09:33:34;8.40;99.90
67870;DHT22;54673;52.262;6.830;2023-11-21T09:36:00;8.90;99.90
67870;DHT22;54673;52.262;6.830;2023-11-21T09:38:26;8.90;99.90
67870;DHT22;54673;52.262;6.830;2023-11-21T09:40:54;9.40;99.90
67870;DHT22;54673;52.262;6.830;2023-11-21T09:43:20;8.70;99.90
67870;DHT22;54673;52.262;6.830;2023-11-21T09:45:53;9.60;99.90
67870;DHT22;54673;52.262;6.830;2023-11-21T09:48:20;10.10;99.90
67870;DHT22;54673;52.262;6.830;2023-11-21T09:50:47;8.80;99.90
67870;DHT22;54673;52.262;6.830;2023-11-21T09:53:20;9.60;99.90
67870;DHT22;54673;52.262;6.830;2023-11-21T09:55:48;9.10;99.90
67870;DHT22;54673;52.262;6.830;2023-11-21T09:58:16;9.50;99.90
67870;DHT22;54673;52.262;6.830;2023-11-21T10:00:44;8.50;99.90
67870;DHT22;54673;52.262;6.830;2023-11-21T10:03:10;8.50;99.90
67870;DHT22;54673;52.262;6.830;2023-11-21T10:05:37;8.10;99.90
67870;DHT22;54673;52.262;6.830;2023-11-21T10:08:10;9.00;99.90
67870;DHT22;54673;52.262;6.830;2023-11-21T10:10:37;8.60;99.90
67870;DHT22;54673;52.262;6.830;2023-11-21T10:13:05;9.40;99.90
67870;DHT22;54673;52.262;6.830;2023-11-21T10:15:34;9.80;99.90
67870;DHT22;54673;52.262;6.830;2023-11-21T10:18:05;9.40;99.90
67870;DHT22;54673;52.262;6.830;2023-11-21T10:20:33;8.70;99.90
67870;DHT22;54673;52.262;6.830;2023-11-21T10:23:00;8.80;99.90
67870;DHT22;54673;52.262;6.830;2023-11-21T10:25:29;9.40;99.90
67870;DHT22;54673;52.262;6.830;2023-11-21T10:27:59;9.00;99.90
67870;DHT22;54673;52.262;6.830;2023-11-21T10:30:37;9.40;99.90
67870;DHT22;54673;52.262;6.830;2023-11-21T10:33:07;8.30;99.90
67870;DHT22;54673;52.262;6.830;2023-11-21T10:35:49;8.70;99.90
67870;DHT22;54673;52.262;6.830;2023-11-21T10:38:18;10.10;99.90
67870;DHT22;54673;52.262;6.830;2023-11-21T10:40:46;9.10;99.90
67870;DHT22;54673;52.262;6.830;2023-11-21T10:43:13;9.50;99.90
67870;DHT22;54673;52.262;6.830;2023-11-21T10:45:40;9.20;99.90
67870;DHT22;54673;52.262;6.830;2023-11-21T10:48:08;8.70;99.90
67870;DHT22;54673;52.262;6.830;2023-11-21T10:50:36;10.40;99.90
67870;DHT22;54673;52.262;6.830;2023-11-21T10:53:07;10.40;99.90
67870;DHT22;54673;52.262;6.830;2023-11-21T10:55:37;8.80;99.90
67870;DHT22;54673;52.262;6.830;2023-11-21T10:58:04;10.00;99.90
67870;DHT22;54673;52.262;6.830;2023-11-21T11:00:31;9.10;99.90
67870;DHT22;54673;52.262;6.830;2023-11-21T11:02:57;9.90;99.90
67870;DHT22;54673;52.262;6.830;2023-11-21T11:05:28;9.80;99.90
67870;DHT22;54673;52.262;6.830;2023-11-21T11:08:05;9.00;99.90
67870;DHT22;54673;52.262;6.830;2023-11-21T11:10:33;9.00;99.90
67870;DHT22;54673;52.262;6.830;2023-11-21T11:13:00;9.10;99.90
67870;DHT22;54673;52.262;6.830;2023-11-21T11:15:27;9.10;99.90
67870;DHT22;54673;52.262;6.830;2023-11-21T11:17:53;10.50;99.90
67870;DHT22;54673;52.262;6.830;2023-11-21T11:20:34;9.10;99.90
67870;DHT22;54673;52.262;6.830;2023-11-21T11:23:13;9.10;99.90
67870;DHT22;54673;52.262;6.830;2023-11-21T11:28:42;9.10;99.90
67870;DHT22;54673;52.262;6.830;2023-11-21T11:36:51;9.10;99.90
67870;DHT22;54673;52.262;6.830;2023-11-21T11:39:27;9.10;99.90
67870;DHT22;54673;52.262;6.830;2023-11-21T11:41:56;9.80;99.90
67870;DHT22;54673;52.262;6.830;2023-11-21T11:47:29;10.10;99.90
67870;DHT22;54673;52.262;6.830;2023-11-21T11:50:11;9.10;99.90
67870;DHT22;54673;52.262;6.830;2023-11-21T11:52:50;9.20;99.90
67870;DHT22;54673;52.262;6.830;2023-11-21T11:55:21;9.20;99.90
67870;DHT22;54673;52.262;6.830;2023-11-21T11:57:52;9.20;99.90
67870;DHT22;54673;52.262;6.830;2023-11-21T12:02:57;9.20;99.90
67870;DHT22;54673;52.262;6.830;2023-11-21T12:05:24;9.20;99.90
67870;DHT22;54673;52.262;6.830;2023-11-21T12:08:03;8.80;99.90
67870;DHT22;54673;52.262;6.830;2023-11-21T12:10:30;9.20;99.90
67870;DHT22;54673;52.262;6.830;2023-11-21T12:13:09;9.20;99.90
67870;DHT22;54673;52.262;6.830;2023-11-21T12:15:37;9.20;99.90
67870;DHT22;54673;52.262;6.830;2023-11-21T12:18:04;9.20;99.90
67870;DHT22;54673;52.262;6.830;2023-11-21T12:20:30;9.20;99.90
67870;DHT22;54673;52.262;6.830;2023-11-21T12:23:00;9.20;99.90
67870;DHT22;54673;52.262;6.830;2023-11-21T12:25:29;9.20;99.90
67870;DHT22;54673;52.262;6.830;2023-11-21T12:27:57;9.20;99.90
67870;DHT22;54673;52.262;6.830;2023-11-21T12:30:27;9.20;99.90
67870;DHT22;54673;52.262;6.830;2023-11-21T12:32:56;9.20;99.90
67870;DHT22;54673;52.262;6.830;2023-11-21T12:35:25;9.20;99.90
67870;DHT22;54673;52.262;6.830;2023-11-21T12:37:52;9.20;99.90
67870;DHT22;54673;52.262;6.830;2023-11-21T12:40:18;9.30;99.90
67870;DHT22;54673;52.262;6.830;2023-11-21T12:42:55;10.20;99.90
67870;DHT22;54673;52.262;6.830;2023-11-21T12:45:28;10.10;99.90
67870;DHT22;54673;52.262;6.830;2023-11-21T12:48:05;9.20;99.90
67870;DHT22;54673;52.262;6.830;2023-11-21T12:50:37;9.20;99.90
67870;DHT22;54673;52.262;6.830;2023-11-21T12:53:04;10.20;99.90
67870;DHT22;54673;52.262;6.830;2023-11-21T12:55:32;9.40;99.90
67870;DHT22;54673;52.262;6.830;2023-11-21T12:58:00;9.20;99.90
67870;DHT22;54673;52.262;6.830;2023-11-21T13:00:36;10.40;99.90
67870;DHT22;54673;52.262;6.830;2023-11-21T13:03:06;9.20;99.90
67870;DHT22;54673;52.262;6.830;2023-11-21T13:05:37;10.20;99.90
67870;DHT22;54673;52.262;6.830;2023-11-21T13:08:11;9.50;99.90
67870;DHT22;54673;52.262;6.830;2023-11-21T13:10:39;9.20;99.90
67870;DHT22;54673;52.262;6.830;2023-11-21T13:13:06;10.20;99.90
67870;DHT22;54673;52.262;6.830;2023-11-21T13:15:38;9.60;99.90
67870;DHT22;54673;52.262;6.830;2023-11-21T13:18:04;9.30;99.90
67870;DHT22;54673;52.262;6.830;2023-11-21T13:20:29;9.20;99.90
67870;DHT22;54673;52.262;6.830;2023-11-21T13:22:56;10.20;99.90
67870;DHT22;54673;52.262;6.830;2023-11-21T13:25:30;10.00;99.90
67870;DHT22;54673;52.262;6.830;2023-11-21T13:27:57;9.20;99.90
67870;DHT22;54673;52.262;6.830;2023-11-21T13:30:24;9.60;99.90
67870;DHT22;54673;52.262;6.830;2023-11-21T13:33:02;9.20;99.90
67870;DHT22;54673;52.262;6.830;2023-11-21T13:35:32;9.20;99.90
67870;DHT22;54673;52.262;6.830;2023-11-21T13:38:11;10.30;99.90
67870;DHT22;54673;52.262;6.830;2023-11-21T13:40:38;9.20;99.90
67870;DHT22;54673;52.262;6.830;2023-11-21T13:43:13;10.40;99.90
67870;DHT22;54673;52.262;6.830;2023-11-21T13:45:40;9.20;99.90
67870;DHT22;54673;52.262;6.830;2023-11-21T13:48:06;9.20;99.90
67870;DHT22;54673;52.262;6.830;2023-11-21T13:50:39;9.20;99.90
67870;DHT22;54673;52.262;6.830;2023-11-21T13:53:11;9.20;99.90
67870;DHT22;54673;52.262;6.830;2023-11-21T13:55:51;9.90;99.90
67870;DHT22;54673;52.262;6.830;2023-11-21T13:58:20;9.10;99.90
67870;DHT22;54673;52.262;6.830;2023-11-21T14:00:50;10.20;99.90
67870;DHT22;54673;52.262;6.830;2023-11-21T14:03:22;9.60;99.90
67870;DHT22;54673;52.262;6.830;2023-11-21T14:05:58;10.00;99.90
67870;DHT22;54673;52.262;6.830;2023-11-21T14:08:26;9.80;99.90
67870;DHT22;54673;52.262;6.830;2023-11-21T14:10:55;10.20;99.90
67870;DHT22;54673;52.262;6.830;2023-11-21T14:13:23;10.10;99.90
67870;DHT22;54673;52.262;6.830;2023-11-21T14:15:50;9.60;99.90
67870;DHT22;54673;52.262;6.830;2023-11-21T14:18:23;9.50;99.90
67870;DHT22;54673;52.262;6.830;2023-11-21T14:20:56;9.60;99.90
67870;DHT22;54673;52.262;6.830;2023-11-21T14:23:25;9.60;99.90
67870;DHT22;54673;52.262;6.830;2023-11-21T14:25:51;10.00;99.90
67870;DHT22;54673;52.262;6.830;2023-11-21T14:28:17;9.60;99.90
67870;DHT22;54673;52.262;6.830;2023-11-21T14:30:45;10.20;99.90
67870;DHT22;54673;52.262;6.830;2023-11-21T14:33:12;9.10;99.90
67870;DHT22;54673;52.262;6.830;2023-11-21T14:35:37;9.60;99.90
67870;DHT22;54673;52.262;6.830;2023-11-21T14:38:03;9.00;99.90
67870;DHT22;54673;52.262;6.830;2023-11-21T14:40:32;9.80;99.90
67870;DHT22;54673;52.262;6.830;2023-11-21T14:43:02;10.00;99.90
67870;DHT22;54673;52.262;6.830;2023-11-21T14:45:31;9.90;99.90
67870;DHT22;54673;52.262;6.830;2023-11-21T14:47:57;10.20;99.90
67870;DHT22;54673;52.262;6.830;2023-11-21T14:50:33;9.10;99.90
67870;DHT22;54673;52.262;6.830;2023-11-21T14:53:21;9.80;99.90
67870;DHT22;54673;52.262;6.830;2023-11-21T14:56:07;10.00;99.90
67870;DHT22;54673;52.262;6.830;2023-11-21T14:58:33;9.10;99.90
67870;DHT22;54673;52.262;6.830;2023-11-21T15:00:59;10.20;99.90
67870;DHT22;54673;52.262;6.830;2023-11-21T15:03:26;10.10;99.90
67870;DHT22;54673;52.262;6.830;2023-11-21T15:06:08;9.10;99.90
67870;DHT22;54673;52.262;6.830;2023-11-21T15:08:56;9.60;99.90
67870;DHT22;54673;52.262;6.830;2023-11-21T15:11:35;9.30;99.90
67870;DHT22;54673;52.262;6.830;2023-11-21T15:14:02;9.10;99.90
67870;DHT22;54673;52.262;6.830;2023-11-21T15:16:37;9.20;99.90
67870;DHT22;54673;52.262;6.830;2023-11-21T15:19:06;9.10;99.90
67870;DHT22;54673;52.262;6.830;2023-11-21T15:21:31;9.80;99.90
67870;DHT22;54673;52.262;6.830;2023-11-21T15:23:58;10.10;99.90
67870;DHT22;54673;52.262;6.830;2023-11-21T15:26:24;8.80;99.90
67870;DHT22;54673;52.262;6.830;2023-11-21T15:28:53;8.90;99.90
67870;DHT22;54673;52.262;6.830;2023-11-21T15:31:19;9.20;99.90
67870;DHT22;54673;52.262;6.830;2023-11-21T15:33:53;10.00;99.90
67870;DHT22;54673;52.262;6.830;2023-11-21T15:36:19;8.10;99.90
67870;DHT22;54673;52.262;6.830;2023-11-21T15:38:45;9.40;99.90
67870;DHT22;54673;52.262;6.830;2023-11-21T15:41:11;9.40;99.90
67870;DHT22;54673;52.262;6.830;2023-11-21T15:43:37;9.60;99.90
67870;DHT22;54673;52.262;6.830;2023-11-21T15:46:03;9.00;99.90
67870;DHT22;54673;52.262;6.830;2023-11-21T15:48:34;8.90;99.90
67870;DHT22;54673;52.262;6.830;2023-11-21T15:51:00;8.90;99.90
67870;DHT22;54673;52.262;6.830;2023-11-21T15:53:28;8.90;99.90
67870;DHT22;54673;52.262;6.830;2023-11-21T15:55:53;8.90;99.90
67870;DHT22;54673;52.262;6.830;2023-11-21T15:58:19;8.90;99.90
67870;DHT22;54673;52.262;6.830;2023-11-21T16:00:45;8.90;99.90
67870;DHT22;54673;52.262;6.830;2023-11-21T16:03:10;8.80;99.90